Redlands, CA (92373)

12:58 AM PDT on September 20, 2014 (GMT -0700)
Redlands High School-Terriers | Change Station
CLOSE
Current Station
Personal Weather Station
Location: Redlands, CA
Elevation: 1505 ft
Nearby Weather Stations

Elev 1505 ft 34.05 °N, 117.17 °W | Updated 4 seconds ago

Clear
Clear
64.2 °F
Feels Like 64.2 °F
N
0.0
Wind Variable Wind from North
Gusts 0.0 mph

Today
High -- | Low -- °F
--% Chance of Precip.
Yesterday
High -- | Low -- °F
Precip. -- in
6:35 AM 6:48 PM
Waning Crescent, 14% visible
Pressure 29.89 in
Visibility 10.0 miles
Clouds Clear
Dew Point 59 °F
Humidity 82%
Rainfall 0.00 in
Snow Depth Not available.
UV 0.0 out of 12
Pollen 6.90 out of 12
Ozone Good
Flu Activity Not available.
METAR KRIV 200658Z AUTO 00000KT 10SM CLR 19/15 A2992 RMK AO2 SLP120 T01920151

More Conditions Fewer Conditions

Pressure 29.89 in
Visibility 10.0 miles
Clouds Clear
Dew Point 59 °F
Humidity 82%
Rainfall 0.00 in
Snow Depth Not available.
UV 0.0 out of 12
Pollen 6.90 out of 12
Ozone Good
Flu Activity Not available.
METAR KRIV 200658Z AUTO 00000KT 10SM CLR 19/15 A2992 RMK AO2 SLP120 T01920151

More Conditions Fewer Conditions

10-Day Weather Forecast

Almanac

Astronomy

Sep. 20, 2014 Rise Set
Actual Time 6:35 AM PDT 6:48 PM PDT
Civil Twilight 6:10 AM PDT 7:13 PM PDT
Nautical Twilight 5:41 AM PDT 7:42 PM PDT
Astronomical Twilight 5:11 AM PDT 8:11 PM PDT
Moon 3:25 AM PDT 4:48 PM PDT
Length of Visible Light 13h 02m
Length of Day
12h 12m
Tomorrow will be 2m 6s shorter.
Waning Crescent, 14% of the Moon is Illuminated
Today
Waning Crescent
Sep 24
New
Oct 1
First Quarter
Oct 8
Full
Oct 15
Last Quarter

Today's Extremes

State Highs State Lows

Community

WunderPhotos

Upload Photos

1,754,793 photos uploaded!

WunderBlogs® & News

Nearby

Air Quality

  Air Quality AQ Index Pollutant
Yesterday Good
OZONE
Current Good
OZONE
Saturday Good
PM10
Saturday Good
OZONE
Saturday Good
CO
Saturday Good
NO2

Snow Depth

Station Depth Elevation
Monitor Pass 0 in 8350 ft
Leavitt Meadows 1 in 7200 ft
Adin Mountain 0 in 6200 ft
Blue Lakes 0 in 8000 ft
Sonora Pass 0 in 8800 ft

Earthquake Activity

City Distance Mag. Time & Date
Aguanga, California 45 miles 2.5 1:38 AM PDT
2014-09-19
Minimum magnitude displayed is 2.5.

Coastal Water Temperatures

Place Temperature
No Stations Reporting

Nearby Weather Stations